createdAt,value
2023-02-05T00:08:24.000Z,6.20
2023-02-05T00:18:24.000Z,6.10
2023-02-05T00:28:24.000Z,6.10
2023-02-05T00:38:25.000Z,5.60
2023-02-05T00:48:25.000Z,4.90
2023-02-05T00:58:25.000Z,6.00
2023-02-05T01:18:26.000Z,5.00
2023-02-05T01:28:27.000Z,5.20
2023-02-05T01:38:27.000Z,6.70
2023-02-05T01:48:27.000Z,5.20
2023-02-05T01:58:28.000Z,4.80
2023-02-05T02:08:28.000Z,5.10
2023-02-05T02:18:29.000Z,4.30
2023-02-05T02:28:29.000Z,4.60
2023-02-05T02:48:30.000Z,5.60
2023-02-05T02:58:30.000Z,5.20
2023-02-05T03:08:31.000Z,4.70
2023-02-05T03:18:31.000Z,5.30
2023-02-05T03:28:32.000Z,5.80
2023-02-05T03:38:32.000Z,6.70
2023-02-05T03:48:33.000Z,5.60
2023-02-05T03:58:33.000Z,5.10
2023-02-05T04:18:34.000Z,6.50
2023-02-05T04:28:35.000Z,5.70
2023-02-05T04:38:35.000Z,6.20
2023-02-05T04:48:36.000Z,6.10
2023-02-05T04:58:36.000Z,6.30
2023-02-05T05:08:37.000Z,6.80
2023-02-05T05:18:37.000Z,7.10
2023-02-05T05:28:38.000Z,7.70
2023-02-05T05:48:39.000Z,8.50
2023-02-05T05:58:40.000Z,7.60
2023-02-05T06:08:40.000Z,11.90
2023-02-05T06:18:41.000Z,25.60
2023-02-05T06:28:42.000Z,14.30
2023-02-05T06:38:42.000Z,10.90
2023-02-05T06:48:43.000Z,11.30
2023-02-05T06:58:43.000Z,7.40
2023-02-05T07:18:44.000Z,8.30
2023-02-05T07:28:45.000Z,8.20
2023-02-05T07:38:46.000Z,7.10
2023-02-05T07:48:46.000Z,7.40
2023-02-05T07:58:47.000Z,7.70
2023-02-05T08:08:47.000Z,18.30
2023-02-05T08:18:47.000Z,13.60
2023-02-05T08:28:48.000Z,12.00
2023-02-05T08:48:49.000Z,10.60
2023-02-05T08:58:49.000Z,12.50
2023-02-05T09:08:49.000Z,16.80
2023-02-05T09:18:50.000Z,12.30
2023-02-05T09:28:50.000Z,13.90
2023-02-05T09:28:50.000Z,13.90
2023-02-05T09:38:50.000Z,14.20
2023-02-05T09:48:50.000Z,13.80
2023-02-05T09:58:50.000Z,12.80
2023-02-05T10:18:51.000Z,13.10
2023-02-05T10:28:51.000Z,14.60
2023-02-05T10:38:51.000Z,15.40
2023-02-05T10:48:51.000Z,12.20
2023-02-05T10:58:51.000Z,13.20
2023-02-05T11:08:51.000Z,13.80
2023-02-05T11:18:51.000Z,12.30
2023-02-05T11:28:51.000Z,10.90
2023-02-05T11:48:51.000Z,11.10
2023-02-05T11:58:51.000Z,9.80
2023-02-05T12:08:51.000Z,8.00
2023-02-05T12:18:51.000Z,7.60
2023-02-05T12:28:51.000Z,7.50
2023-02-05T12:38:51.000Z,8.70
2023-02-05T12:48:51.000Z,7.80
2023-02-05T12:58:51.000Z,8.90
2023-02-05T13:18:51.000Z,7.40
2023-02-05T13:28:51.000Z,8.00
2023-02-05T13:38:51.000Z,7.30
2023-02-05T13:48:51.000Z,8.50
2023-02-05T13:58:51.000Z,8.60
2023-02-05T14:08:51.000Z,9.90
2023-02-05T14:18:51.000Z,9.10
2023-02-05T14:28:51.000Z,10.20
2023-02-05T14:48:51.000Z,9.30
2023-02-05T14:58:51.000Z,8.20
2023-02-05T15:08:52.000Z,8.50
2023-02-05T15:18:52.000Z,10.30
2023-02-05T15:28:52.000Z,8.50
2023-02-05T15:38:52.000Z,8.10
2023-02-05T15:48:52.000Z,9.10
2023-02-05T15:58:52.000Z,11.70
2023-02-05T16:18:53.000Z,8.40
2023-02-05T16:28:53.000Z,10.50
2023-02-05T16:38:53.000Z,22.30
2023-02-05T16:48:53.000Z,32.80
2023-02-05T16:58:54.000Z,13.60
2023-02-05T17:08:54.000Z,13.50
2023-02-05T17:18:54.000Z,15.20
2023-02-05T17:28:55.000Z,11.00
2023-02-05T17:48:55.000Z,11.10
2023-02-05T17:58:56.000Z,19.40
2023-02-05T18:08:56.000Z,15.60
2023-02-05T18:18:57.000Z,21.10
2023-02-05T18:28:57.000Z,17.80
2023-02-05T18:38:58.000Z,10.00
2023-02-05T18:48:58.000Z,8.70
2023-02-05T19:14:17.000Z,8.70
2023-02-05T19:14:17.000Z,13.40
2023-02-05T19:24:17.000Z,10.50
2023-02-05T19:59:53.000Z,11.60
2023-02-05T19:59:53.000Z,9.80
2023-02-05T20:09:53.000Z,11.80
2023-02-05T20:09:53.000Z,11.80
2023-02-05T20:19:53.000Z,11.60
2023-02-05T20:29:53.000Z,10.50
2023-02-05T20:39:53.000Z,13.10
2023-02-05T20:49:53.000Z,10.50
2023-02-05T20:59:53.000Z,11.20
2023-02-05T21:09:53.000Z,13.20
2023-02-05T21:29:53.000Z,12.70
2023-02-05T21:29:53.000Z,12.70
2023-02-05T21:39:53.000Z,12.80
2023-02-05T21:49:53.000Z,12.00
2023-02-05T21:59:53.000Z,12.80
2023-02-05T22:09:53.000Z,13.80
2023-02-05T22:19:53.000Z,12.80
2023-02-05T22:29:54.000Z,12.20
2023-02-05T22:39:54.000Z,16.20
2023-02-05T22:59:54.000Z,11.80
2023-02-05T23:09:54.000Z,14.10
2023-02-05T23:19:54.000Z,13.00
2023-02-05T23:29:55.000Z,17.00
2023-02-05T23:39:55.000Z,15.20
2023-02-05T23:49:55.000Z,14.90
2023-02-05T23:59:55.000Z,14.60
